Homer, AK

2:34 AM AKDT on September 20, 2014 (GMT -0800)
KAKHOMER5 | Change Station
CLOSE
Current Station
Personal Weather Station
Location: Homer, AK
Elevation: 1152 ft
Nearby Weather Stations

Elev 1152 ft 59.67 °N, 151.49 °W | Updated 29 seconds ago

Overcast
Overcast
49.4 °F
Feels Like 49 °F
N
1.0
Wind Variable Wind from NE
Gusts 7.0 mph

Today
High -- | Low -- °F
--% Chance of Precip.
Yesterday
High -- | Low -- °F
Precip. -- in
7:46 AM 8:10 PM
Waning Crescent, 13% visible
Pressure 29.52 in
Visibility 10.0 miles
Clouds Overcast 7500 ft
Windchill 49 °F
Dew Point 43 °F
Humidity 78%
Rainfall 0.00 in
Snow Depth 0 in , 2 in , 0 in
UV 0 out of 12
Pollen Not available.
Air Quality Not available.
Flu Activity Not available.
METAR PAHO 200953Z AUTO 05003KT 10SM OVC075 10/06 A2951 RMK AO2 SLP994 T01000056 TSNO

More Conditions Fewer Conditions

Pressure 29.52 in
Visibility 10.0 miles
Clouds Overcast 7500 ft
Windchill 49 °F
Dew Point 43 °F
Humidity 78%
Rainfall 0.00 in
Snow Depth 0 in , 2 in , 0 in
UV 0 out of 12
Pollen Not available.
Air Quality Not available.
Flu Activity Not available.
METAR PAHO 200953Z AUTO 05003KT 10SM OVC075 10/06 A2951 RMK AO2 SLP994 T01000056 TSNO

More Conditions Fewer Conditions

10-Day Weather Forecast

Almanac

Astronomy

Sep. 20, 2014 Rise Set
Actual Time 7:46 AM AKDT 8:10 PM AKDT
Civil Twilight 7:04 AM AKDT 8:52 PM AKDT
Nautical Twilight 6:14 AM AKDT 9:42 PM AKDT
Astronomical Twilight 5:19 AM AKDT 10:36 PM AKDT
Moon 3:56 AM AKDT 6:50 PM AKDT
Length of Visible Light 13h 47m
Length of Day
12h 24m
Tomorrow will be 5m 20s shorter.
Waning Crescent, 13% of the Moon is Illuminated
Today
Waning Crescent
Sep 24
New
Oct 1
First Quarter
Oct 8
Full
Oct 15
Last Quarter

Today's Extremes

State Highs State Lows

Community

WunderPhotos

Upload Photos

1,754,827 photos uploaded!

WunderBlogs® & News

Nearby

Snow Depth

Station Depth Elevation
Eagle Summit 0 in 3650 ft
Turnagain Pass 2 in 1880 ft
Upper Tsaina River 0 in 1750 ft
Coldfoot 0 in 1040 ft
Summit Creek 0 in 1400 ft

Earthquake Activity

City Distance Mag. Time & Date
No recent earthquake activity has been reported nearby.
Minimum magnitude displayed is 2.5.

Coastal Water Temperatures

Place Temperature
No Stations Reporting

Nearby Weather Stations